sensor_id;sensor_type;location;lat;lon;timestamp;P1;durP1;ratioP1;P2;durP2;ratioP2
83125;SDS011;73488;47.234;-1.540;2023-12-28T00:01:26;5.05;;;1.50;;
83125;SDS011;73488;47.234;-1.540;2023-12-28T00:04:50;5.43;;;2.00;;
83125;SDS011;73488;47.234;-1.540;2023-12-28T00:08:14;6.25;;;1.90;;
83125;SDS011;73488;47.234;-1.540;2023-12-28T00:11:38;7.72;;;1.75;;
83125;SDS011;73488;47.234;-1.540;2023-12-28T00:15:02;5.00;;;1.33;;
83125;SDS011;73488;47.234;-1.540;2023-12-28T00:18:26;6.32;;;1.77;;
83125;SDS011;73488;47.234;-1.540;2023-12-28T00:21:51;3.63;;;1.48;;
83125;SDS011;73488;47.234;-1.540;2023-12-28T00:25:15;5.85;;;1.83;;
83125;SDS011;73488;47.234;-1.540;2023-12-28T00:28:39;11.85;;;2.08;;
83125;SDS011;73488;47.234;-1.540;2023-12-28T00:35:30;6.50;;;1.95;;
83125;SDS011;73488;47.234;-1.540;2023-12-28T00:38:54;7.53;;;2.40;;
83125;SDS011;73488;47.234;-1.540;2023-12-28T00:42:18;5.18;;;2.13;;
83125;SDS011;73488;47.234;-1.540;2023-12-28T00:45:42;4.95;;;1.10;;
83125;SDS011;73488;47.234;-1.540;2023-12-28T00:49:05;5.68;;;1.55;;
83125;SDS011;73488;47.234;-1.540;2023-12-28T00:52:30;4.20;;;1.42;;
83125;SDS011;73488;47.234;-1.540;2023-12-28T00:55:54;5.15;;;1.83;;
83125;SDS011;73488;47.234;-1.540;2023-12-28T00:59:17;6.78;;;1.98;;
83125;SDS011;73488;47.234;-1.540;2023-12-28T01:02:41;5.82;;;1.73;;
83125;SDS011;73488;47.234;-1.540;2023-12-28T01:06:06;4.65;;;1.58;;
83125;SDS011;73488;47.234;-1.540;2023-12-28T01:09:31;5.78;;;1.90;;
83125;SDS011;73488;47.234;-1.540;2023-12-28T01:12:55;3.83;;;1.95;;
83125;SDS011;73488;47.234;-1.540;2023-12-28T01:16:19;4.95;;;2.03;;
83125;SDS011;73488;47.234;-1.540;2023-12-28T01:19:44;4.28;;;1.50;;
83125;SDS011;73488;47.234;-1.540;2023-12-28T01:23:08;5.75;;;1.75;;
83125;SDS011;73488;47.234;-1.540;2023-12-28T01:26:32;4.65;;;1.60;;
83125;SDS011;73488;47.234;-1.540;2023-12-28T01:29:56;3.10;;;1.10;;
83125;SDS011;73488;47.234;-1.540;2023-12-28T01:33:20;5.25;;;1.58;;
83125;SDS011;73488;47.234;-1.540;2023-12-28T01:36:44;3.83;;;1.45;;
83125;SDS011;73488;47.234;-1.540;2023-12-28T01:40:08;2.92;;;1.15;;
83125;SDS011;73488;47.234;-1.540;2023-12-28T01:43:32;5.18;;;1.80;;
83125;SDS011;73488;47.234;-1.540;2023-12-28T01:46:56;4.05;;;1.52;;
83125;SDS011;73488;47.234;-1.540;2023-12-28T01:50:21;4.45;;;1.55;;
83125;SDS011;73488;47.234;-1.540;2023-12-28T01:53:45;7.18;;;1.52;;
83125;SDS011;73488;47.234;-1.540;2023-12-28T01:57:10;5.30;;;1.90;;
83125;SDS011;73488;47.234;-1.540;2023-12-28T02:00:34;3.45;;;1.60;;
83125;SDS011;73488;47.234;-1.540;2023-12-28T02:03:59;3.60;;;1.23;;
83125;SDS011;73488;47.234;-1.540;2023-12-28T02:07:23;3.50;;;1.33;;
83125;SDS011;73488;47.234;-1.540;2023-12-28T02:10:47;5.05;;;1.55;;
83125;SDS011;73488;47.234;-1.540;2023-12-28T02:14:11;3.97;;;1.55;;
83125;SDS011;73488;47.234;-1.540;2023-12-28T02:21:11;4.32;;;1.50;;
83125;SDS011;73488;47.234;-1.540;2023-12-28T02:24:57;5.40;;;1.60;;
83125;SDS011;73488;47.234;-1.540;2023-12-28T02:28:21;7.03;;;1.40;;
83125;SDS011;73488;47.234;-1.540;2023-12-28T02:31:53;4.38;;;1.20;;
83125;SDS011;73488;47.234;-1.540;2023-12-28T02:35:57;2.60;;;1.40;;
83125;SDS011;73488;47.234;-1.540;2023-12-28T02:39:20;4.68;;;1.33;;
83125;SDS011;73488;47.234;-1.540;2023-12-28T02:42:45;4.57;;;1.83;;
83125;SDS011;73488;47.234;-1.540;2023-12-28T02:46:09;3.53;;;1.70;;
83125;SDS011;73488;47.234;-1.540;2023-12-28T02:49:32;4.80;;;1.63;;
83125;SDS011;73488;47.234;-1.540;2023-12-28T02:52:57;4.63;;;1.45;;
83125;SDS011;73488;47.234;-1.540;2023-12-28T02:56:21;3.67;;;1.05;;
83125;SDS011;73488;47.234;-1.540;2023-12-28T02:59:45;3.40;;;1.45;;
83125;SDS011;73488;47.234;-1.540;2023-12-28T03:03:09;4.10;;;1.40;;
83125;SDS011;73488;47.234;-1.540;2023-12-28T03:06:34;4.57;;;1.73;;
83125;SDS011;73488;47.234;-1.540;2023-12-28T03:09:58;3.58;;;1.25;;
83125;SDS011;73488;47.234;-1.540;2023-12-28T03:13:22;4.25;;;1.35;;
83125;SDS011;73488;47.234;-1.540;2023-12-28T03:16:46;3.65;;;1.35;;
83125;SDS011;73488;47.234;-1.540;2023-12-28T03:20:10;5.32;;;2.15;;
83125;SDS011;73488;47.234;-1.540;2023-12-28T03:23:34;4.03;;;1.30;;
83125;SDS011;73488;47.234;-1.540;2023-12-28T03:26:58;4.30;;;1.58;;
83125;SDS011;73488;47.234;-1.540;2023-12-28T03:30:22;6.75;;;1.50;;
83125;SDS011;73488;47.234;-1.540;2023-12-28T03:33:46;2.90;;;1.33;;
83125;SDS011;73488;47.234;-1.540;2023-12-28T03:37:10;2.72;;;1.23;;
83125;SDS011;73488;47.234;-1.540;2023-12-28T03:40:34;4.78;;;1.25;;
83125;SDS011;73488;47.234;-1.540;2023-12-28T03:43:58;4.25;;;1.63;;
83125;SDS011;73488;47.234;-1.540;2023-12-28T03:47:22;5.55;;;1.30;;
83125;SDS011;73488;47.234;-1.540;2023-12-28T03:50:45;5.80;;;1.30;;
83125;SDS011;73488;47.234;-1.540;2023-12-28T03:54:10;2.38;;;1.00;;
83125;SDS011;73488;47.234;-1.540;2023-12-28T03:57:34;6.47;;;1.40;;
83125;SDS011;73488;47.234;-1.540;2023-12-28T04:00:58;6.00;;;1.13;;
83125;SDS011;73488;47.234;-1.540;2023-12-28T04:04:22;6.03;;;1.85;;
83125;SDS011;73488;47.234;-1.540;2023-12-28T04:07:46;3.45;;;1.40;;
83125;SDS011;73488;47.234;-1.540;2023-12-28T04:11:10;4.55;;;1.55;;
83125;SDS011;73488;47.234;-1.540;2023-12-28T04:14:35;4.18;;;1.27;;
83125;SDS011;73488;47.234;-1.540;2023-12-28T04:17:58;3.92;;;1.10;;
83125;SDS011;73488;47.234;-1.540;2023-12-28T04:21:22;2.83;;;1.52;;
83125;SDS011;73488;47.234;-1.540;2023-12-28T04:24:46;2.70;;;1.08;;
83125;SDS011;73488;47.234;-1.540;2023-12-28T04:28:10;3.72;;;1.10;;
83125;SDS011;73488;47.234;-1.540;2023-12-28T04:31:39;11.00;;;1.33;;
83125;SDS011;73488;47.234;-1.540;2023-12-28T04:35:04;4.53;;;1.13;;
83125;SDS011;73488;47.234;-1.540;2023-12-28T04:38:29;4.30;;;1.33;;
83125;SDS011;73488;47.234;-1.540;2023-12-28T04:41:53;4.28;;;1.83;;
83125;SDS011;73488;47.234;-1.540;2023-12-28T04:45:17;3.10;;;1.08;;
83125;SDS011;73488;47.234;-1.540;2023-12-28T04:48:41;3.40;;;1.00;;
83125;SDS011;73488;47.234;-1.540;2023-12-28T04:52:05;3.47;;;1.05;;
83125;SDS011;73488;47.234;-1.540;2023-12-28T04:55:29;4.60;;;1.25;;
83125;SDS011;73488;47.234;-1.540;2023-12-28T04:58:53;4.03;;;0.95;;
83125;SDS011;73488;47.234;-1.540;2023-12-28T05:02:17;4.00;;;1.83;;
83125;SDS011;73488;47.234;-1.540;2023-12-28T05:05:41;4.13;;;1.10;;
83125;SDS011;73488;47.234;-1.540;2023-12-28T05:09:05;3.95;;;1.00;;
83125;SDS011;73488;47.234;-1.540;2023-12-28T05:12:29;3.38;;;1.23;;
83125;SDS011;73488;47.234;-1.540;2023-12-28T05:15:53;5.03;;;1.73;;
83125;SDS011;73488;47.234;-1.540;2023-12-28T05:19:17;2.40;;;0.95;;
83125;SDS011;73488;47.234;-1.540;2023-12-28T05:22:41;3.63;;;1.10;;
83125;SDS011;73488;47.234;-1.540;2023-12-28T05:26:05;3.45;;;1.20;;
83125;SDS011;73488;47.234;-1.540;2023-12-28T05:29:29;5.68;;;1.23;;
83125;SDS011;73488;47.234;-1.540;2023-12-28T05:32:52;2.47;;;0.90;;
83125;SDS011;73488;47.234;-1.540;2023-12-28T05:36:16;6.10;;;1.10;;
83125;SDS011;73488;47.234;-1.540;2023-12-28T05:39:40;2.42;;;1.13;;
83125;SDS011;73488;47.234;-1.540;2023-12-28T05:43:04;6.68;;;1.60;;
83125;SDS011;73488;47.234;-1.540;2023-12-28T05:46:28;3.45;;;1.05;;
83125;SDS011;73488;47.234;-1.540;2023-12-28T05:49:52;4.88;;;1.23;;
83125;SDS011;73488;47.234;-1.540;2023-12-28T05:53:16;4.55;;;1.08;;
83125;SDS011;73488;47.234;-1.540;2023-12-28T05:56:40;3.80;;;1.23;;
83125;SDS011;73488;47.234;-1.540;2023-12-28T06:00:04;5.00;;;1.25;;
83125;SDS011;73488;47.234;-1.540;2023-12-28T06:03:30;3.22;;;1.13;;
83125;SDS011;73488;47.234;-1.540;2023-12-28T06:06:54;2.90;;;0.82;;
83125;SDS011;73488;47.234;-1.540;2023-12-28T06:10:18;3.92;;;1.00;;
83125;SDS011;73488;47.234;-1.540;2023-12-28T06:13:41;3.17;;;0.90;;
83125;SDS011;73488;47.234;-1.540;2023-12-28T06:17:05;3.40;;;1.27;;
83125;SDS011;73488;47.234;-1.540;2023-12-28T06:20:29;3.55;;;1.05;;
83125;SDS011;73488;47.234;-1.540;2023-12-28T06:23:55;2.13;;;0.90;;
83125;SDS011;73488;47.234;-1.540;2023-12-28T06:27:20;4.28;;;1.10;;
83125;SDS011;73488;47.234;-1.540;2023-12-28T06:30:43;4.07;;;1.27;;
83125;SDS011;73488;47.234;-1.540;2023-12-28T06:34:07;2.88;;;1.13;;
83125;SDS011;73488;47.234;-1.540;2023-12-28T06:37:31;3.88;;;0.93;;
83125;SDS011;73488;47.234;-1.540;2023-12-28T06:40:56;2.67;;;0.98;;
83125;SDS011;73488;47.234;-1.540;2023-12-28T06:44:21;2.67;;;1.05;;
83125;SDS011;73488;47.234;-1.540;2023-12-28T06:47:45;3.53;;;1.10;;
83125;SDS011;73488;47.234;-1.540;2023-12-28T06:51:09;2.67;;;1.00;;
83125;SDS011;73488;47.234;-1.540;2023-12-28T06:54:33;4.13;;;1.15;;
83125;SDS011;73488;47.234;-1.540;2023-12-28T06:57:57;3.88;;;1.10;;
83125;SDS011;73488;47.234;-1.540;2023-12-28T07:01:20;3.80;;;0.90;;
83125;SDS011;73488;47.234;-1.540;2023-12-28T07:04:44;3.15;;;1.50;;
83125;SDS011;73488;47.234;-1.540;2023-12-28T07:08:08;4.28;;;1.13;;
83125;SDS011;73488;47.234;-1.540;2023-12-28T07:11:32;6.40;;;0.95;;
83125;SDS011;73488;47.234;-1.540;2023-12-28T07:14:56;2.10;;;1.08;;
83125;SDS011;73488;47.234;-1.540;2023-12-28T07:18:20;2.72;;;0.77;;
83125;SDS011;73488;47.234;-1.540;2023-12-28T07:21:44;2.40;;;0.75;;
83125;SDS011;73488;47.234;-1.540;2023-12-28T07:25:08;3.25;;;1.25;;
83125;SDS011;73488;47.234;-1.540;2023-12-28T07:28:32;5.57;;;1.13;;
83125;SDS011;73488;47.234;-1.540;2023-12-28T07:31:56;4.65;;;1.00;;
83125;SDS011;73488;47.234;-1.540;2023-12-28T07:35:20;2.78;;;0.80;;
83125;SDS011;73488;47.234;-1.540;2023-12-28T07:38:44;1.88;;;0.82;;
83125;SDS011;73488;47.234;-1.540;2023-12-28T07:42:08;2.42;;;0.73;;
83125;SDS011;73488;47.234;-1.540;2023-12-28T07:45:32;3.90;;;1.50;;
83125;SDS011;73488;47.234;-1.540;2023-12-28T07:48:56;4.30;;;1.20;;
83125;SDS011;73488;47.234;-1.540;2023-12-28T07:52:20;6.95;;;1.33;;
83125;SDS011;73488;47.234;-1.540;2023-12-28T07:55:44;6.35;;;1.60;;
83125;SDS011;73488;47.234;-1.540;2023-12-28T07:59:07;4.30;;;1.15;;
83125;SDS011;73488;47.234;-1.540;2023-12-28T08:02:32;4.75;;;1.10;;
83125;SDS011;73488;47.234;-1.540;2023-12-28T08:05:56;4.03;;;1.20;;
83125;SDS011;73488;47.234;-1.540;2023-12-28T08:09:20;5.68;;;1.30;;
83125;SDS011;73488;47.234;-1.540;2023-12-28T08:12:44;3.38;;;1.25;;
83125;SDS011;73488;47.234;-1.540;2023-12-28T08:16:08;6.60;;;1.40;;
83125;SDS011;73488;47.234;-1.540;2023-12-28T08:19:32;5.07;;;1.13;;
83125;SDS011;73488;47.234;-1.540;2023-12-28T08:22:56;6.07;;;1.63;;
83125;SDS011;73488;47.234;-1.540;2023-12-28T08:26:20;7.22;;;1.42;;
83125;SDS011;73488;47.234;-1.540;2023-12-28T08:29:44;3.35;;;0.93;;
83125;SDS011;73488;47.234;-1.540;2023-12-28T08:33:08;4.43;;;1.00;;
83125;SDS011;73488;47.234;-1.540;2023-12-28T08:36:32;5.15;;;1.80;;
83125;SDS011;73488;47.234;-1.540;2023-12-28T08:39:56;5.65;;;1.23;;
83125;SDS011;73488;47.234;-1.540;2023-12-28T08:43:20;4.15;;;1.08;;
83125;SDS011;73488;47.234;-1.540;2023-12-28T08:46:44;4.47;;;1.27;;
83125;SDS011;73488;47.234;-1.540;2023-12-28T08:50:08;5.10;;;1.95;;
83125;SDS011;73488;47.234;-1.540;2023-12-28T08:53:32;9.00;;;1.50;;
83125;SDS011;73488;47.234;-1.540;2023-12-28T08:56:56;5.15;;;1.20;;
83125;SDS011;73488;47.234;-1.540;2023-12-28T09:00:20;3.78;;;0.98;;
83125;SDS011;73488;47.234;-1.540;2023-12-28T09:03:48;2.83;;;0.82;;
83125;SDS011;73488;47.234;-1.540;2023-12-28T09:07:12;4.82;;;1.00;;
83125;SDS011;73488;47.234;-1.540;2023-12-28T09:10:36;3.08;;;1.02;;
83125;SDS011;73488;47.234;-1.540;2023-12-28T09:14:00;5.80;;;1.30;;
83125;SDS011;73488;47.234;-1.540;2023-12-28T09:17:24;5.95;;;1.38;;
83125;SDS011;73488;47.234;-1.540;2023-12-28T09:20:49;4.78;;;1.65;;
83125;SDS011;73488;47.234;-1.540;2023-12-28T09:24:13;4.72;;;1.38;;
83125;SDS011;73488;47.234;-1.540;2023-12-28T09:27:37;7.97;;;1.40;;
83125;SDS011;73488;47.234;-1.540;2023-12-28T09:31:02;4.45;;;1.50;;
83125;SDS011;73488;47.234;-1.540;2023-12-28T09:34:26;7.22;;;2.22;;
83125;SDS011;73488;47.234;-1.540;2023-12-28T09:37:50;3.58;;;0.88;;
83125;SDS011;73488;47.234;-1.540;2023-12-28T09:41:16;4.13;;;1.20;;
83125;SDS011;73488;47.234;-1.540;2023-12-28T09:45:01;4.70;;;1.73;;
83125;SDS011;73488;47.234;-1.540;2023-12-28T09:48:25;5.45;;;1.35;;
83125;SDS011;73488;47.234;-1.540;2023-12-28T09:51:49;4.75;;;1.40;;
83125;SDS011;73488;47.234;-1.540;2023-12-28T09:55:13;4.32;;;1.40;;
83125;SDS011;73488;47.234;-1.540;2023-12-28T09:58:37;7.93;;;1.15;;
83125;SDS011;73488;47.234;-1.540;2023-12-28T10:02:03;5.28;;;1.73;;
83125;SDS011;73488;47.234;-1.540;2023-12-28T10:05:28;5.80;;;1.33;;
83125;SDS011;73488;47.234;-1.540;2023-12-28T10:08:52;7.35;;;1.65;;
83125;SDS011;73488;47.234;-1.540;2023-12-28T10:12:16;6.85;;;1.38;;
83125;SDS011;73488;47.234;-1.540;2023-12-28T10:15:40;5.93;;;1.10;;
83125;SDS011;73488;47.234;-1.540;2023-12-28T10:19:07;6.20;;;1.70;;
83125;SDS011;73488;47.234;-1.540;2023-12-28T10:22:34;7.85;;;1.30;;
83125;SDS011;73488;47.234;-1.540;2023-12-28T10:25:58;7.47;;;1.70;;
83125;SDS011;73488;47.234;-1.540;2023-12-28T10:29:24;6.82;;;1.48;;
83125;SDS011;73488;47.234;-1.540;2023-12-28T10:32:48;12.82;;;2.00;;
83125;SDS011;73488;47.234;-1.540;2023-12-28T10:36:12;9.43;;;1.80;;
83125;SDS011;73488;47.234;-1.540;2023-12-28T10:39:38;7.43;;;1.85;;
83125;SDS011;73488;47.234;-1.540;2023-12-28T10:43:06;10.45;;;1.85;;
83125;SDS011;73488;47.234;-1.540;2023-12-28T10:46:30;6.63;;;1.83;;
83125;SDS011;73488;47.234;-1.540;2023-12-28T10:49:56;12.38;;;1.80;;
83125;SDS011;73488;47.234;-1.540;2023-12-28T10:57:07;8.77;;;1.83;;
83125;SDS011;73488;47.234;-1.540;2023-12-28T11:00:40;10.15;;;1.88;;
83125;SDS011;73488;47.234;-1.540;2023-12-28T11:07:48;8.02;;;1.60;;
83125;SDS011;73488;47.234;-1.540;2023-12-28T11:11:16;8.32;;;1.83;;
83125;SDS011;73488;47.234;-1.540;2023-12-28T11:14:43;5.10;;;2.10;;
83125;SDS011;73488;47.234;-1.540;2023-12-28T11:18:08;11.88;;;1.75;;
83125;SDS011;73488;47.234;-1.540;2023-12-28T11:21:33;14.68;;;2.85;;
83125;SDS011;73488;47.234;-1.540;2023-12-28T11:24:57;9.82;;;2.28;;
83125;SDS011;73488;47.234;-1.540;2023-12-28T11:28:22;11.63;;;2.33;;
83125;SDS011;73488;47.234;-1.540;2023-12-28T11:31:50;11.60;;;2.45;;
83125;SDS011;73488;47.234;-1.540;2023-12-28T11:35:14;11.60;;;2.40;;
83125;SDS011;73488;47.234;-1.540;2023-12-28T11:39:02;10.50;;;2.10;;
83125;SDS011;73488;47.234;-1.540;2023-12-28T11:42:34;11.63;;;2.75;;
83125;SDS011;73488;47.234;-1.540;2023-12-28T11:45:59;10.75;;;2.33;;
83125;SDS011;73488;47.234;-1.540;2023-12-28T11:49:27;13.20;;;2.35;;
83125;SDS011;73488;47.234;-1.540;2023-12-28T11:52:50;7.97;;;1.90;;
83125;SDS011;73488;47.234;-1.540;2023-12-28T11:56:15;9.43;;;2.05;;
83125;SDS011;73488;47.234;-1.540;2023-12-28T11:59:40;10.23;;;2.20;;
83125;SDS011;73488;47.234;-1.540;2023-12-28T12:03:04;9.07;;;2.10;;
83125;SDS011;73488;47.234;-1.540;2023-12-28T12:06:28;11.25;;;2.05;;
83125;SDS011;73488;47.234;-1.540;2023-12-28T12:09:59;6.57;;;2.03;;
83125;SDS011;73488;47.234;-1.540;2023-12-28T12:13:28;9.27;;;2.03;;
83125;SDS011;73488;47.234;-1.540;2023-12-28T12:16:53;11.32;;;2.10;;
83125;SDS011;73488;47.234;-1.540;2023-12-28T12:20:17;7.95;;;1.90;;
83125;SDS011;73488;47.234;-1.540;2023-12-28T12:23:42;7.93;;;2.83;;
83125;SDS011;73488;47.234;-1.540;2023-12-28T12:27:06;9.13;;;1.88;;
83125;SDS011;73488;47.234;-1.540;2023-12-28T12:30:30;8.70;;;2.20;;
83125;SDS011;73488;47.234;-1.540;2023-12-28T12:33:54;5.60;;;1.58;;
83125;SDS011;73488;47.234;-1.540;2023-12-28T12:37:18;8.63;;;2.20;;
83125;SDS011;73488;47.234;-1.540;2023-12-28T12:40:42;5.93;;;2.10;;
83125;SDS011;73488;47.234;-1.540;2023-12-28T12:44:07;7.93;;;1.58;;
83125;SDS011;73488;47.234;-1.540;2023-12-28T12:47:32;7.95;;;1.77;;
83125;SDS011;73488;47.234;-1.540;2023-12-28T12:50:56;9.15;;;2.03;;
83125;SDS011;73488;47.234;-1.540;2023-12-28T12:54:20;8.88;;;2.00;;
83125;SDS011;73488;47.234;-1.540;2023-12-28T12:57:44;8.48;;;2.38;;
83125;SDS011;73488;47.234;-1.540;2023-12-28T13:01:11;9.25;;;2.40;;
83125;SDS011;73488;47.234;-1.540;2023-12-28T13:04:37;8.07;;;2.38;;
83125;SDS011;73488;47.234;-1.540;2023-12-28T13:08:02;8.27;;;2.00;;
83125;SDS011;73488;47.234;-1.540;2023-12-28T13:11:26;8.82;;;2.15;;
83125;SDS011;73488;47.234;-1.540;2023-12-28T13:14:50;4.47;;;1.98;;
83125;SDS011;73488;47.234;-1.540;2023-12-28T13:18:14;4.75;;;1.70;;
83125;SDS011;73488;47.234;-1.540;2023-12-28T13:21:38;10.52;;;2.10;;
83125;SDS011;73488;47.234;-1.540;2023-12-28T13:25:02;6.93;;;1.42;;
83125;SDS011;73488;47.234;-1.540;2023-12-28T13:28:26;9.93;;;1.80;;
83125;SDS011;73488;47.234;-1.540;2023-12-28T13:31:51;8.93;;;1.77;;
83125;SDS011;73488;47.234;-1.540;2023-12-28T13:35:15;4.80;;;1.50;;
83125;SDS011;73488;47.234;-1.540;2023-12-28T13:38:39;5.93;;;1.63;;
83125;SDS011;73488;47.234;-1.540;2023-12-28T13:42:06;5.07;;;1.38;;
83125;SDS011;73488;47.234;-1.540;2023-12-28T13:45:30;6.32;;;1.77;;
83125;SDS011;73488;47.234;-1.540;2023-12-28T13:48:55;8.98;;;1.70;;
83125;SDS011;73488;47.234;-1.540;2023-12-28T13:52:19;6.22;;;1.85;;
83125;SDS011;73488;47.234;-1.540;2023-12-28T13:55:43;6.60;;;1.85;;
83125;SDS011;73488;47.234;-1.540;2023-12-28T13:59:07;7.45;;;1.70;;
83125;SDS011;73488;47.234;-1.540;2023-12-28T14:02:31;5.85;;;1.65;;
83125;SDS011;73488;47.234;-1.540;2023-12-28T14:05:55;5.97;;;1.27;;
83125;SDS011;73488;47.234;-1.540;2023-12-28T14:09:19;4.63;;;1.63;;
83125;SDS011;73488;47.234;-1.540;2023-12-28T14:12:43;5.90;;;1.38;;
83125;SDS011;73488;47.234;-1.540;2023-12-28T14:16:07;4.40;;;1.42;;
83125;SDS011;73488;47.234;-1.540;2023-12-28T14:19:31;6.05;;;1.70;;
83125;SDS011;73488;47.234;-1.540;2023-12-28T14:22:55;6.05;;;1.85;;
83125;SDS011;73488;47.234;-1.540;2023-12-28T14:26:20;6.20;;;1.67;;
83125;SDS011;73488;47.234;-1.540;2023-12-28T14:29:45;6.65;;;1.50;;
83125;SDS011;73488;47.234;-1.540;2023-12-28T14:33:10;6.40;;;1.52;;
83125;SDS011;73488;47.234;-1.540;2023-12-28T14:36:34;4.97;;;1.10;;
83125;SDS011;73488;47.234;-1.540;2023-12-28T14:39:58;5.07;;;1.75;;
83125;SDS011;73488;47.234;-1.540;2023-12-28T14:43:22;4.30;;;1.27;;
83125;SDS011;73488;47.234;-1.540;2023-12-28T14:46:46;3.45;;;1.40;;
83125;SDS011;73488;47.234;-1.540;2023-12-28T14:50:10;4.88;;;1.85;;
83125;SDS011;73488;47.234;-1.540;2023-12-28T14:53:34;5.95;;;1.35;;
83125;SDS011;73488;47.234;-1.540;2023-12-28T14:56:58;6.43;;;1.70;;
83125;SDS011;73488;47.234;-1.540;2023-12-28T15:00:24;6.50;;;1.25;;
83125;SDS011;73488;47.234;-1.540;2023-12-28T15:03:48;5.22;;;1.60;;
83125;SDS011;73488;47.234;-1.540;2023-12-28T15:06:14;5.65;;;1.55;;
83125;SDS011;73488;47.234;-1.540;2023-12-28T15:08:42;3.53;;;1.13;;
83125;SDS011;73488;47.234;-1.540;2023-12-28T15:11:08;6.00;;;1.30;;
83125;SDS011;73488;47.234;-1.540;2023-12-28T15:14:33;6.07;;;1.58;;
83125;SDS011;73488;47.234;-1.540;2023-12-28T15:17:52;4.45;;;1.52;;
83125;SDS011;73488;47.234;-1.540;2023-12-28T15:20:18;4.43;;;1.20;;
83125;SDS011;73488;47.234;-1.540;2023-12-28T15:22:44;7.57;;;1.38;;
83125;SDS011;73488;47.234;-1.540;2023-12-28T15:25:10;4.80;;;1.55;;
83125;SDS011;73488;47.234;-1.540;2023-12-28T15:27:37;5.20;;;1.20;;
83125;SDS011;73488;47.234;-1.540;2023-12-28T15:30:02;7.72;;;2.10;;
83125;SDS011;73488;47.234;-1.540;2023-12-28T15:32:33;5.90;;;1.60;;
83125;SDS011;73488;47.234;-1.540;2023-12-28T15:34:59;7.50;;;1.70;;
83125;SDS011;73488;47.234;-1.540;2023-12-28T15:38:22;6.65;;;1.60;;
83125;SDS011;73488;47.234;-1.540;2023-12-28T15:41:46;6.70;;;1.52;;
83125;SDS011;73488;47.234;-1.540;2023-12-28T15:45:10;5.22;;;1.85;;
83125;SDS011;73488;47.234;-1.540;2023-12-28T15:48:34;5.43;;;1.83;;
83125;SDS011;73488;47.234;-1.540;2023-12-28T15:51:58;4.18;;;1.30;;
83125;SDS011;73488;47.234;-1.540;2023-12-28T15:55:22;5.30;;;1.80;;
83125;SDS011;73488;47.234;-1.540;2023-12-28T15:58:47;6.18;;;1.52;;
83125;SDS011;73488;47.234;-1.540;2023-12-28T16:02:10;5.15;;;1.20;;
83125;SDS011;73488;47.234;-1.540;2023-12-28T16:05:35;9.85;;;1.55;;
83125;SDS011;73488;47.234;-1.540;2023-12-28T16:08:59;5.32;;;1.33;;
83125;SDS011;73488;47.234;-1.540;2023-12-28T16:12:23;10.75;;;1.70;;
83125;SDS011;73488;47.234;-1.540;2023-12-28T16:15:47;6.82;;;1.25;;
83125;SDS011;73488;47.234;-1.540;2023-12-28T16:19:11;5.35;;;1.63;;
83125;SDS011;73488;47.234;-1.540;2023-12-28T16:22:35;7.75;;;2.05;;
83125;SDS011;73488;47.234;-1.540;2023-12-28T16:25:59;7.60;;;1.75;;
83125;SDS011;73488;47.234;-1.540;2023-12-28T16:29:23;8.15;;;1.88;;
83125;SDS011;73488;47.234;-1.540;2023-12-28T16:32:47;7.40;;;1.48;;
83125;SDS011;73488;47.234;-1.540;2023-12-28T16:36:11;16.60;;;2.33;;
83125;SDS011;73488;47.234;-1.540;2023-12-28T16:39:35;12.13;;;2.50;;
83125;SDS011;73488;47.234;-1.540;2023-12-28T16:42:59;7.65;;;1.73;;
83125;SDS011;73488;47.234;-1.540;2023-12-28T16:46:23;10.32;;;1.98;;
83125;SDS011;73488;47.234;-1.540;2023-12-28T16:49:13;10.27;;;2.58;;
83125;SDS011;73488;47.234;-1.540;2023-12-28T16:51:42;12.38;;;1.92;;
83125;SDS011;73488;47.234;-1.540;2023-12-28T16:56:33;10.30;;;2.00;;
83125;SDS011;73488;47.234;-1.540;2023-12-28T16:59:45;9.40;;;1.48;;
83125;SDS011;73488;47.234;-1.540;2023-12-28T17:02:11;5.78;;;1.85;;
83125;SDS011;73488;47.234;-1.540;2023-12-28T17:04:51;6.30;;;1.77;;
83125;SDS011;73488;47.234;-1.540;2023-12-28T17:07:17;6.63;;;1.60;;
83125;SDS011;73488;47.234;-1.540;2023-12-28T17:09:54;9.43;;;1.95;;
83125;SDS011;73488;47.234;-1.540;2023-12-28T17:12:38;9.23;;;2.35;;
83125;SDS011;73488;47.234;-1.540;2023-12-28T17:15:06;10.40;;;4.80;;
83125;SDS011;73488;47.234;-1.540;2023-12-28T17:17:36;11.27;;;3.47;;
83125;SDS011;73488;47.234;-1.540;2023-12-28T17:20:03;7.15;;;2.53;;
83125;SDS011;73488;47.234;-1.540;2023-12-28T17:22:33;13.30;;;2.90;;
83125;SDS011;73488;47.234;-1.540;2023-12-28T17:25:07;7.57;;;2.17;;
83125;SDS011;73488;47.234;-1.540;2023-12-28T17:30:02;11.07;;;1.95;;
83125;SDS011;73488;47.234;-1.540;2023-12-28T17:32:31;10.05;;;2.40;;
83125;SDS011;73488;47.234;-1.540;2023-12-28T17:35:00;8.45;;;1.90;;
83125;SDS011;73488;47.234;-1.540;2023-12-28T17:37:26;9.63;;;2.60;;
83125;SDS011;73488;47.234;-1.540;2023-12-28T17:39:52;10.77;;;2.08;;
83125;SDS011;73488;47.234;-1.540;2023-12-28T17:42:22;10.13;;;2.55;;
83125;SDS011;73488;47.234;-1.540;2023-12-28T17:44:50;7.85;;;1.92;;
83125;SDS011;73488;47.234;-1.540;2023-12-28T17:47:23;10.90;;;2.30;;
83125;SDS011;73488;47.234;-1.540;2023-12-28T17:49:52;8.75;;;1.98;;
83125;SDS011;73488;47.234;-1.540;2023-12-28T17:52:18;11.05;;;1.98;;
83125;SDS011;73488;47.234;-1.540;2023-12-28T17:54:44;15.90;;;2.20;;
83125;SDS011;73488;47.234;-1.540;2023-12-28T17:57:10;8.23;;;2.00;;
83125;SDS011;73488;47.234;-1.540;2023-12-28T17:59:36;9.65;;;1.88;;
83125;SDS011;73488;47.234;-1.540;2023-12-28T18:03:02;9.48;;;2.53;;
83125;SDS011;73488;47.234;-1.540;2023-12-28T18:06:26;10.38;;;1.55;;
83125;SDS011;73488;47.234;-1.540;2023-12-28T18:09:50;8.25;;;1.85;;
83125;SDS011;73488;47.234;-1.540;2023-12-28T18:13:14;8.48;;;2.08;;
83125;SDS011;73488;47.234;-1.540;2023-12-28T18:16:38;8.77;;;1.75;;
83125;SDS011;73488;47.234;-1.540;2023-12-28T18:20:02;12.23;;;2.10;;
83125;SDS011;73488;47.234;-1.540;2023-12-28T18:22:29;9.63;;;1.70;;
83125;SDS011;73488;47.234;-1.540;2023-12-28T18:24:55;7.32;;;2.00;;
83125;SDS011;73488;47.234;-1.540;2023-12-28T18:27:20;11.20;;;2.33;;
83125;SDS011;73488;47.234;-1.540;2023-12-28T18:30:44;9.57;;;1.83;;
83125;SDS011;73488;47.234;-1.540;2023-12-28T18:34:08;5.75;;;1.77;;
83125;SDS011;73488;47.234;-1.540;2023-12-28T18:36:34;12.32;;;2.10;;
83125;SDS011;73488;47.234;-1.540;2023-12-28T18:39:02;9.15;;;2.03;;
83125;SDS011;73488;47.234;-1.540;2023-12-28T18:41:28;8.93;;;1.60;;
83125;SDS011;73488;47.234;-1.540;2023-12-28T18:44:52;6.35;;;2.00;;
83125;SDS011;73488;47.234;-1.540;2023-12-28T18:48:16;6.85;;;1.58;;
83125;SDS011;73488;47.234;-1.540;2023-12-28T18:51:40;9.80;;;1.80;;
83125;SDS011;73488;47.234;-1.540;2023-12-28T18:55:04;9.93;;;2.33;;
83125;SDS011;73488;47.234;-1.540;2023-12-28T18:58:28;7.85;;;2.20;;
83125;SDS011;73488;47.234;-1.540;2023-12-28T19:01:52;8.10;;;2.35;;
83125;SDS011;73488;47.234;-1.540;2023-12-28T19:05:16;11.32;;;2.25;;
83125;SDS011;73488;47.234;-1.540;2023-12-28T19:08:40;8.52;;;2.03;;
83125;SDS011;73488;47.234;-1.540;2023-12-28T19:12:05;9.43;;;2.22;;
83125;SDS011;73488;47.234;-1.540;2023-12-28T19:15:29;8.90;;;2.15;;
83125;SDS011;73488;47.234;-1.540;2023-12-28T19:18:53;6.47;;;1.98;;
83125;SDS011;73488;47.234;-1.540;2023-12-28T19:22:17;11.50;;;2.40;;
83125;SDS011;73488;47.234;-1.540;2023-12-28T19:25:41;8.85;;;2.53;;
83125;SDS011;73488;47.234;-1.540;2023-12-28T19:29:05;5.75;;;2.58;;
83125;SDS011;73488;47.234;-1.540;2023-12-28T19:32:31;7.93;;;2.30;;
83125;SDS011;73488;47.234;-1.540;2023-12-28T19:35:55;11.68;;;2.17;;
83125;SDS011;73488;47.234;-1.540;2023-12-28T19:39:19;5.38;;;2.10;;
83125;SDS011;73488;47.234;-1.540;2023-12-28T19:42:44;6.70;;;2.15;;
83125;SDS011;73488;47.234;-1.540;2023-12-28T19:46:10;9.32;;;2.20;;
83125;SDS011;73488;47.234;-1.540;2023-12-28T19:49:34;7.30;;;2.45;;
83125;SDS011;73488;47.234;-1.540;2023-12-28T19:52:58;8.43;;;2.13;;